Time;durP1;ratioP1;P1;durP2;ratioP2;P2;SDS_P1;SDS_P2;PMS_P1;PMS_P2;Temp;Humidity;BMP_temperature;BMP_pressure;BME280_temperature;BME280_humidity;BME280_pressure;Samples;Min_cycle;Max_cycle;Signal;HPM_P1;HPM_P2
2022/09/17 00:00:38;;;;;;;6.93;2.30;;;10.50;99.90;;;;;;5052242;28;20083;-62
2022/09/17 00:03:04;;;;;;;5.07;1.77;;;10.50;99.90;;;;;;5052343;28;20024;-63
2022/09/17 00:05:30;;;;;;;11.25;2.13;;;10.50;99.90;;;;;;5052604;28;20431;-64
2022/09/17 00:07:56;;;;;;;8.13;2.03;;;10.50;99.90;;;;;;5053144;28;20116;-63
2022/09/17 00:10:22;;;;;;;6.25;1.58;;;10.60;99.90;;;;;;5053533;28;20013;-64
2022/09/17 00:12:48;;;;;;;9.02;1.85;;;10.60;99.90;;;;;;5055038;28;20048;-64
2022/09/17 00:15:13;;;;;;;10.65;2.10;;;10.70;99.90;;;;;;5054370;28;20096;-64
2022/09/17 00:17:40;;;;;;;12.90;2.08;;;10.70;99.90;;;;;;5054892;28;20025;-65
2022/09/17 00:20:10;;;;;;;12.38;2.00;;;10.80;99.90;;;;;;5054852;28;20116;-62
2022/09/17 00:22:37;;;;;;;9.88;1.85;;;10.80;99.90;;;;;;5053085;28;20124;-63
2022/09/17 00:25:04;;;;;;;9.52;1.90;;;10.80;99.90;;;;;;5055101;28;20029;-63
2022/09/17 00:27:30;;;;;;;7.88;1.80;;;10.90;99.90;;;;;;5054769;28;20029;-64
2022/09/17 00:29:55;;;;;;;5.65;1.60;;;10.90;99.90;;;;;;5054363;28;20025;-64
2022/09/17 00:32:22;;;;;;;8.80;1.75;;;10.80;99.90;;;;;;5054607;28;20041;-65
2022/09/17 00:34:50;;;;;;;6.22;1.90;;;10.80;99.90;;;;;;5054879;28;20515;-63
2022/09/17 00:37:17;;;;;;;9.70;1.65;;;10.80;99.90;;;;;;5053883;28;20040;-65
2022/09/17 00:39:43;;;;;;;9.85;1.80;;;10.70;99.90;;;;;;5055023;28;20021;-61
2022/09/17 00:42:11;;;;;;;5.05;1.60;;;10.70;99.90;;;;;;5054695;28;20066;-65
2022/09/17 00:44:51;;;;;;;6.60;1.60;;;10.70;99.90;;;;;;5053983;28;20025;-62
2022/09/17 00:47:20;;;;;;;6.93;1.37;;;10.70;99.90;;;;;;5052934;28;20029;-62
2022/09/17 00:49:48;;;;;;;4.35;1.33;;;10.70;99.90;;;;;;5053527;28;20256;-62
2022/09/17 00:52:22;;;;;;;6.10;1.80;;;10.70;99.90;;;;;;5053250;28;20175;-63
2022/09/17 00:55:01;;;;;;;6.97;1.50;;;10.70;99.90;;;;;;5054526;28;20180;-63
2022/09/17 00:57:28;;;;;;;12.38;2.00;;;10.70;99.90;;;;;;5053399;28;20033;-63
2022/09/17 00:59:55;;;;;;;6.38;1.67;;;10.70;99.90;;;;;;5054310;28;20017;-63
2022/09/17 01:02:21;;;;;;;5.45;1.35;;;10.70;99.90;;;;;;5053818;28;20029;-62
2022/09/17 01:04:46;;;;;;;12.15;1.80;;;10.70;99.90;;;;;;5053546;28;20481;-62
2022/09/17 01:07:37;;;;;;;4.75;1.80;;;10.60;99.90;;;;;;5053798;28;20028;-62
2022/09/17 01:10:09;;;;;;;6.90;1.55;;;10.60;99.90;;;;;;5054156;28;20021;-61
2022/09/17 01:12:54;;;;;;;;;;;10.60;99.90;;;;;;5053607;28;20115;-62
2022/09/17 01:16:03;;;;;;;5.68;1.45;;;10.50;99.90;;;;;;5051535;28;19912;-62
2022/09/17 01:18:59;;;;;;;5.20;1.58;;;10.40;99.90;;;;;;5050241;28;20021;-63
2022/09/17 01:21:58;;;;;;;6.50;1.30;;;10.30;99.90;;;;;;5052820;28;20036;-62
2022/09/17 01:24:49;;;;;;;10.00;1.27;;;10.30;99.90;;;;;;5052780;28;20099;-63
2022/09/17 01:27:30;;;;;;;12.75;2.50;;;10.20;99.90;;;;;;5043942;28;20033;-62
2022/09/17 01:30:05;;;;;;;7.97;1.42;;;10.20;99.90;;;;;;5052578;28;20091;-62
2022/09/17 01:32:55;;;;;;;5.03;1.02;;;10.20;99.90;;;;;;5051985;28;20116;-62
2022/09/17 01:35:32;;;;;;;4.53;1.23;;;10.20;99.90;;;;;;5052406;28;20021;-62
2022/09/17 01:38:06;;;;;;;6.75;1.20;;;10.20;99.90;;;;;;5052508;28;20017;-62
2022/09/17 01:40:44;;;;;;;7.30;1.45;;;10.20;99.90;;;;;;5050567;28;20038;-62
2022/09/17 01:43:28;;;;;;;9.23;1.65;;;10.30;99.90;;;;;;5052407;28;20021;-62
2022/09/17 01:46:14;;;;;;;10.98;2.42;;;10.30;99.90;;;;;;5051077;28;20147;-64
2022/09/17 01:48:45;;;;;;;5.07;1.25;;;10.40;99.90;;;;;;5052244;28;20052;-62
2022/09/17 01:51:15;;;;;;;8.02;1.77;;;10.40;99.90;;;;;;5050747;28;20049;-64
2022/09/17 01:54:08;;;;;;;5.07;1.27;;;10.40;99.90;;;;;;5050312;28;20082;-63
2022/09/17 01:56:43;;;;;;;5.07;1.27;;;10.50;99.90;;;;;;5052163;28;20025;-63
2022/09/17 01:59:28;;;;;;;6.05;1.25;;;10.50;99.90;;;;;;5052248;28;20025;-62
2022/09/17 02:01:59;;;;;;;6.40;1.92;;;10.50;99.90;;;;;;5051572;28;20537;-63
2022/09/17 02:04:34;;;;;;;2.33;1.00;;;10.50;99.90;;;;;;5050741;28;20032;-64
2022/09/17 02:07:06;;;;;;;3.00;0.93;;;10.50;99.90;;;;;;5050581;28;20066;-63
2022/09/17 02:09:39;;;;;;;5.30;1.23;;;10.40;99.90;;;;;;5052197;28;20096;-62
2022/09/17 02:12:17;;;;;;;7.28;1.50;;;10.40;99.90;;;;;;5052003;28;20082;-63
2022/09/17 02:14:52;;;;;;;4.40;0.90;;;10.40;99.90;;;;;;5050132;28;20017;-64
2022/09/17 02:17:25;;;;;;;6.72;1.42;;;10.40;99.90;;;;;;5051952;28;20074;-63
2022/09/17 02:19:52;;;;;;;7.05;1.48;;;10.30;99.90;;;;;;5051881;28;20154;-63
2022/09/17 02:22:24;;;;;;;6.88;1.25;;;10.30;99.90;;;;;;5050196;28;20061;-62
2022/09/17 02:25:19;;;;;;;3.90;1.00;;;10.20;99.90;;;;;;5052178;28;20355;-62
2022/09/17 02:28:07;;;;;;;5.55;1.27;;;10.20;99.90;;;;;;5051893;28;20104;-62
2022/09/17 02:30:33;;;;;;;6.65;1.15;;;10.10;99.90;;;;;;5051185;28;20048;-61
2022/09/17 02:33:01;;;;;;;3.58;1.30;;;10.10;99.90;;;;;;5052049;28;20482;-64
2022/09/17 02:35:29;;;;;;;7.25;1.25;;;10.10;99.90;;;;;;5051146;28;20021;-63
2022/09/17 02:37:55;;;;;;;8.02;1.08;;;10.00;99.90;;;;;;5051894;28;20407;-62
2022/09/17 02:40:26;;;;;;;3.03;0.85;;;10.10;99.90;;;;;;5052103;28;20059;-65
2022/09/17 02:43:15;;;;;;;2.47;0.80;;;10.10;99.90;;;;;;5051511;28;20025;-65
2022/09/17 02:46:18;;;;;;;8.05;1.13;;;10.10;99.90;;;;;;5052181;28;20033;-65
2022/09/17 02:49:02;;;;;;;5.88;1.10;;;10.10;99.90;;;;;;5019608;28;20429;-64
2022/09/17 02:51:37;;;;;;;5.75;1.25;;;10.10;99.90;;;;;;5050433;28;20064;-64
2022/09/17 02:54:12;;;;;;;6.95;1.80;;;10.10;99.90;;;;;;5051611;28;20462;-65
2022/09/17 02:56:54;;;;;;;4.22;1.30;;;10.10;99.90;;;;;;5050982;28;20117;-63
2022/09/17 02:59:40;;;;;;;7.43;1.10;;;10.10;99.90;;;;;;5051586;28;20555;-63
2022/09/17 03:02:25;;;;;;;4.97;1.42;;;10.10;99.90;;;;;;5051770;28;20531;-62
2022/09/17 03:04:52;;;;;;;6.03;1.40;;;10.20;99.90;;;;;;5051256;28;20021;-65
2022/09/17 03:07:20;;;;;;;6.75;1.17;;;10.10;99.90;;;;;;5051327;28;20103;-64
2022/09/17 03:09:46;;;;;;;6.38;1.35;;;10.20;99.90;;;;;;5051453;28;20025;-62
2022/09/17 03:12:12;;;;;;;11.48;1.33;;;10.10;99.90;;;;;;5051090;28;20044;-65
2022/09/17 03:14:38;;;;;;;3.53;1.15;;;10.20;99.90;;;;;;5052581;28;20104;-61
2022/09/17 03:17:04;;;;;;;5.05;1.17;;;10.10;99.90;;;;;;5055015;28;20075;-63
2022/09/17 03:19:29;;;;;;;5.30;0.93;;;10.10;99.90;;;;;;5054519;28;20082;-62
2022/09/17 03:21:55;;;;;;;4.07;1.05;;;10.10;99.90;;;;;;5054812;28;20025;-62
2022/09/17 03:24:21;;;;;;;5.97;1.00;;;10.00;99.90;;;;;;5054892;28;20031;-62
2022/09/17 03:26:48;;;;;;;3.63;1.08;;;10.00;99.90;;;;;;5052706;28;20052;-62
2022/09/17 03:29:14;;;;;;;5.57;0.93;;;9.90;99.90;;;;;;5053318;28;20416;-65
2022/09/17 03:31:40;;;;;;;6.80;1.20;;;9.90;99.90;;;;;;5054294;28;20377;-64
2022/09/17 03:34:06;;;;;;;3.30;1.20;;;9.80;99.90;;;;;;5054737;28;20028;-66
2022/09/17 03:36:32;;;;;;;3.92;1.00;;;9.70;99.90;;;;;;5054663;28;20092;-64
2022/09/17 03:38:58;;;;;;;4.07;0.90;;;9.70;99.90;;;;;;5053720;28;20693;-63
2022/09/17 03:41:24;;;;;;;6.15;1.13;;;9.60;99.90;;;;;;5054821;28;20025;-63
2022/09/17 03:43:50;;;;;;;8.18;0.93;;;9.60;99.90;;;;;;5054205;28;20062;-65
2022/09/17 03:46:16;;;;;;;3.80;0.85;;;9.60;99.90;;;;;;5053942;28;20108;-64
2022/09/17 03:48:42;;;;;;;6.65;1.52;;;9.50;99.90;;;;;;5054503;28;20025;-63
2022/09/17 03:51:08;;;;;;;2.25;0.95;;;9.50;99.90;;;;;;5053967;28;20052;-63
2022/09/17 03:53:34;;;;;;;1.70;1.00;;;9.50;99.90;;;;;;5053799;28;20025;-62
2022/09/17 03:56:01;;;;;;;3.13;1.02;;;9.60;99.90;;;;;;5054141;28;20032;-62
2022/09/17 03:58:29;;;;;;;5.22;1.30;;;9.60;99.90;;;;;;5053435;28;20103;-62
2022/09/17 04:00:56;;;;;;;5.93;1.50;;;9.70;99.90;;;;;;5052206;28;20060;-62
2022/09/17 04:03:23;;;;;;;6.47;1.48;;;9.70;99.90;;;;;;5052930;28;20056;-65
2022/09/17 04:05:49;;;;;;;6.43;1.00;;;9.70;99.90;;;;;;5052534;28;20497;-63
2022/09/17 04:08:15;;;;;;;4.15;1.20;;;9.70;99.90;;;;;;5053159;28;20029;-64
2022/09/17 04:10:41;;;;;;;4.72;1.55;;;9.80;99.90;;;;;;5053647;28;20029;-62
2022/09/17 04:13:08;;;;;;;5.53;1.10;;;9.80;99.90;;;;;;5052751;28;20033;-62
2022/09/17 04:15:33;;;;;;;6.30;2.30;;;9.80;99.90;;;;;;5052178;28;20107;-62
2022/09/17 04:17:59;;;;;;;7.95;1.33;;;9.80;99.90;;;;;;5051625;28;20440;-64
2022/09/17 04:20:25;;;;;;;7.63;1.50;;;9.80;99.90;;;;;;5053949;28;20025;-63
2022/09/17 04:22:51;;;;;;;6.43;1.48;;;9.80;99.90;;;;;;5053378;28;20013;-63
2022/09/17 04:25:17;;;;;;;8.15;1.70;;;9.80;99.90;;;;;;5053908;28;20370;-65
2022/09/17 04:27:44;;;;;;;3.63;1.20;;;9.80;99.90;;;;;;5053450;28;20108;-66
2022/09/17 04:30:11;;;;;;;5.82;1.20;;;9.70;99.90;;;;;;5053810;28;20013;-64
2022/09/17 04:32:37;;;;;;;3.03;0.77;;;9.60;99.90;;;;;;5053392;28;20033;-63
2022/09/17 04:35:03;;;;;;;5.50;1.25;;;9.60;99.90;;;;;;5052040;28;20032;-62
2022/09/17 04:37:29;;;;;;;3.80;1.05;;;9.50;99.90;;;;;;5053188;28;20047;-62
2022/09/17 04:39:54;;;;;;;5.50;1.15;;;9.50;99.90;;;;;;5053533;28;20025;-63
2022/09/17 04:42:20;;;;;;;4.50;1.00;;;9.40;99.90;;;;;;5052354;28;20082;-63
2022/09/17 04:44:46;;;;;;;3.95;1.02;;;9.30;99.90;;;;;;5051547;28;20060;-63
2022/09/17 04:47:11;;;;;;;4.30;0.95;;;9.30;99.90;;;;;;5053838;28;20489;-65
2022/09/17 04:49:37;;;;;;;3.42;1.00;;;9.20;99.90;;;;;;5052610;28;20029;-66
2022/09/17 04:52:02;;;;;;;4.47;1.00;;;9.20;99.90;;;;;;5053322;28;20052;-65
2022/09/17 04:54:28;;;;;;;6.93;1.90;;;9.20;99.90;;;;;;5053046;28;20017;-66
2022/09/17 04:56:54;;;;;;;3.25;1.20;;;9.10;99.90;;;;;;5052181;28;20025;-63
2022/09/17 04:59:19;;;;;;;4.43;1.40;;;9.10;99.90;;;;;;5051623;28;20100;-65
2022/09/17 05:01:45;;;;;;;2.58;0.88;;;9.10;99.90;;;;;;5053167;28;20112;-66
2022/09/17 05:04:10;;;;;;;2.25;0.98;;;9.20;99.90;;;;;;5051708;28;20497;-65
2022/09/17 05:06:36;;;;;;;5.53;1.40;;;9.30;99.90;;;;;;5053143;28;20430;-65
2022/09/17 05:09:02;;;;;;;7.82;1.23;;;9.30;99.90;;;;;;5052765;28;20082;-65
2022/09/17 05:11:28;;;;;;;4.50;1.13;;;9.40;99.90;;;;;;5052462;28;20116;-65
2022/09/17 05:13:54;;;;;;;5.63;1.35;;;9.40;99.90;;;;;;5053065;28;20048;-65
2022/09/17 05:16:19;;;;;;;3.15;0.90;;;9.50;99.90;;;;;;5052789;28;20029;-62
2022/09/17 05:18:46;;;;;;;5.47;1.25;;;9.40;99.90;;;;;;5051888;28;20075;-63
2022/09/17 05:21:12;;;;;;;6.95;1.23;;;9.50;99.90;;;;;;5051843;28;20029;-64
2022/09/17 05:23:37;;;;;;;4.40;1.63;;;9.50;99.90;;;;;;5052227;28;20158;-63
2022/09/17 05:26:03;;;;;;;5.97;1.02;;;9.50;99.90;;;;;;5051755;28;20465;-63
2022/09/17 05:28:29;;;;;;;4.00;0.80;;;9.50;99.90;;;;;;5052229;28;20036;-63
2022/09/17 05:30:58;;;;;;;6.25;1.27;;;9.50;99.90;;;;;;5051520;28;20024;-63
2022/09/17 05:33:23;;;;;;;3.55;1.00;;;9.50;99.90;;;;;;5051194;28;20129;-63
2022/09/17 05:35:49;;;;;;;1.83;0.88;;;9.50;99.90;;;;;;5051186;28;20477;-63
2022/09/17 05:38:14;;;;;;;7.07;1.63;;;9.50;99.90;;;;;;5051100;28;20469;-63
2022/09/17 05:40:40;;;;;;;4.10;1.77;;;9.50;99.90;;;;;;5051974;28;20459;-61
2022/09/17 05:43:08;;;;;;;5.30;1.65;;;9.60;99.90;;;;;;5050803;28;20021;-63
2022/09/17 05:45:34;;;;;;;4.93;1.42;;;9.60;99.90;;;;;;5051161;28;20039;-61
2022/09/17 05:48:01;;;;;;;4.45;1.50;;;9.60;99.90;;;;;;5052310;28;20068;-63
2022/09/17 05:50:28;;;;;;;5.10;1.25;;;9.60;99.90;;;;;;5051943;28;20025;-63
2022/09/17 05:52:54;;;;;;;4.53;1.10;;;9.60;99.90;;;;;;5050189;28;20563;-62
2022/09/17 05:55:21;;;;;;;8.55;1.70;;;9.60;99.90;;;;;;5052099;28;20021;-62
2022/09/17 05:57:48;;;;;;;7.75;1.98;;;9.70;99.90;;;;;;5051082;28;20029;-64
2022/09/17 06:00:14;;;;;;;8.23;1.95;;;9.70;99.90;;;;;;5050044;28;20109;-63
2022/09/17 06:02:40;;;;;;;3.38;1.05;;;9.60;99.90;;;;;;5049490;28;20474;-62
2022/09/17 06:05:06;;;;;;;4.82;1.20;;;9.60;99.90;;;;;;5052632;28;20109;-62
2022/09/17 06:07:35;;;;;;;5.68;1.15;;;9.60;99.90;;;;;;5051229;28;20079;-62
2022/09/17 06:10:02;;;;;;;2.47;0.98;;;9.60;99.90;;;;;;5048238;28;20590;-63
2022/09/17 06:12:28;;;;;;;6.45;1.85;;;9.60;99.90;;;;;;5051180;28;20028;-63
2022/09/17 06:14:54;;;;;;;11.43;1.20;;;9.50;99.90;;;;;;5050984;28;20029;-64
2022/09/17 06:17:19;;;;;;;3.13;0.98;;;9.50;99.90;;;;;;5050028;28;20032;-65
2022/09/17 06:19:45;;;;;;;5.25;1.40;;;9.40;99.90;;;;;;5048362;28;20143;-63
2022/09/17 06:22:10;;;;;;;6.93;1.17;;;9.40;99.90;;;;;;5050621;28;20147;-62
2022/09/17 06:24:36;;;;;;;3.35;1.10;;;9.40;99.90;;;;;;5051961;28;20033;-63
2022/09/17 06:27:02;;;;;;;6.10;0.93;;;9.30;99.90;;;;;;5052010;28;20032;-65
2022/09/17 06:29:27;;;;;;;4.25;1.98;;;9.30;99.90;;;;;;5050851;28;20525;-63
2022/09/17 06:31:53;;;;;;;5.47;1.20;;;9.30;99.90;;;;;;5051513;28;20114;-62
2022/09/17 06:34:18;;;;;;;6.20;1.38;;;9.30;99.90;;;;;;5051389;28;20021;-63
2022/09/17 06:36:44;;;;;;;6.43;2.05;;;9.30;99.90;;;;;;5049908;28;20033;-63
2022/09/17 06:39:10;;;;;;;2.80;1.02;;;9.40;99.90;;;;;;5049761;28;20063;-60
2022/09/17 06:41:37;;;;;;;8.57;1.38;;;9.40;99.90;;;;;;5048827;28;20372;-61
2022/09/17 06:44:03;;;;;;;2.63;1.00;;;9.50;99.90;;;;;;5051211;28;20027;-64
2022/09/17 06:46:29;;;;;;;8.00;1.13;;;9.50;99.90;;;;;;5051642;28;20028;-62
2022/09/17 06:48:54;;;;;;;2.88;1.20;;;9.50;99.90;;;;;;5050264;28;20029;-63
2022/09/17 06:51:21;;;;;;;6.88;1.85;;;9.60;99.90;;;;;;5046487;28;20532;-64
2022/09/17 06:53:47;;;;;;;4.35;1.40;;;9.60;99.90;;;;;;5054381;28;20119;-63
2022/09/17 06:56:13;;;;;;;4.53;1.40;;;9.70;99.90;;;;;;5054487;28;20033;-64
2022/09/17 06:58:43;;;;;;;8.57;2.97;;;9.90;99.90;;;;;;5053956;28;20104;-64
2022/09/17 07:01:10;;;;;;;5.38;1.10;;;10.10;99.90;;;;;;5053204;28;20535;-65
2022/09/17 07:03:37;;;;;;;5.32;1.23;;;10.30;99.90;;;;;;5052316;28;20064;-65
2022/09/17 07:06:03;;;;;;;7.88;1.60;;;10.30;99.90;;;;;;5054583;28;20017;-65
2022/09/17 07:08:33;;;;;;;5.30;1.10;;;10.30;99.90;;;;;;5053347;28;20036;-64
2022/09/17 07:10:59;;;;;;;7.20;1.35;;;10.30;99.90;;;;;;5048647;28;20032;-66
2022/09/17 07:13:25;;;;;;;3.03;1.45;;;10.30;99.90;;;;;;5034290;28;20034;-64
2022/09/17 07:15:58;;;;;;;6.35;1.13;;;10.20;99.90;;;;;;5049925;28;20144;-65
2022/09/17 07:18:24;;;;;;;6.03;1.20;;;10.20;99.90;;;;;;5033971;28;20083;-66
2022/09/17 07:20:58;;;;;;;3.13;1.10;;;10.20;99.90;;;;;;5052747;28;20107;-65
2022/09/17 07:23:25;;;;;;;5.35;1.65;;;10.20;99.90;;;;;;5052625;28;20166;-65
2022/09/17 07:25:56;;;;;;;4.40;1.00;;;10.20;99.90;;;;;;5051666;28;20025;-65
2022/09/17 07:28:22;;;;;;;4.93;1.30;;;10.40;99.90;;;;;;5053954;28;20029;-64
2022/09/17 07:30:49;;;;;;;5.30;1.40;;;10.50;99.90;;;;;;5052599;28;20024;-65
2022/09/17 07:33:16;;;;;;;3.97;0.90;;;10.60;99.90;;;;;;5053468;28;20029;-65
2022/09/17 07:35:42;;;;;;;3.95;0.95;;;10.70;99.90;;;;;;5054186;28;20816;-64
2022/09/17 07:38:08;;;;;;;6.75;1.63;;;10.70;99.90;;;;;;5053224;28;20025;-64
2022/09/17 07:40:33;;;;;;;5.45;1.83;;;10.60;99.90;;;;;;5056243;28;20079;-63
2022/09/17 07:42:59;;;;;;;5.15;1.20;;;10.60;99.90;;;;;;5052240;28;20025;-63
2022/09/17 07:45:24;;;;;;;7.38;1.30;;;10.70;99.90;;;;;;5049924;28;21065;-63
2022/09/17 07:47:50;;;;;;;3.65;1.20;;;10.90;99.90;;;;;;5053975;28;20021;-63
2022/09/17 07:50:16;;;;;;;7.32;1.30;;;11.00;99.90;;;;;;5053628;28;20462;-64
2022/09/17 07:52:46;;;;;;;5.18;1.13;;;11.00;99.90;;;;;;5052050;28;20489;-63
2022/09/17 07:55:12;;;;;;;8.40;1.58;;;11.00;99.90;;;;;;5052252;28;20385;-63
2022/09/17 07:57:38;;;;;;;5.90;1.88;;;11.00;99.90;;;;;;5053327;28;20029;-63
2022/09/17 08:00:04;;;;;;;7.40;1.23;;;11.00;99.90;;;;;;5052206;28;20088;-64
2022/09/17 08:02:30;;;;;;;3.47;0.88;;;11.00;99.90;;;;;;5053148;28;20049;-63
2022/09/17 08:04:56;;;;;;;3.80;1.10;;;11.10;99.90;;;;;;5049888;28;20079;-64
2022/09/17 08:07:21;;;;;;;8.05;2.17;;;11.10;99.90;;;;;;5053051;28;20070;-63
2022/09/17 08:09:47;;;;;;;6.60;1.65;;;11.20;99.90;;;;;;5051737;28;20041;-64
2022/09/17 08:12:13;;;;;;;5.53;1.30;;;11.20;99.90;;;;;;5052389;28;20033;-64
2022/09/17 08:14:38;;;;;;;7.35;1.30;;;11.30;99.90;;;;;;5052297;28;20028;-63
2022/09/17 08:17:06;;;;;;;2.97;1.38;;;11.40;99.90;;;;;;5053100;28;20029;-64
2022/09/17 08:19:32;;;;;;;5.45;1.60;;;11.40;99.90;;;;;;5055425;28;20063;-64
2022/09/17 08:21:58;;;;;;;6.30;1.45;;;11.40;99.90;;;;;;5051596;28;20497;-65
2022/09/17 08:24:23;;;;;;;4.97;1.40;;;11.40;99.90;;;;;;5053553;28;20029;-64
2022/09/17 08:26:49;;;;;;;6.05;1.30;;;11.40;99.90;;;;;;5056068;28;20396;-63
2022/09/17 08:29:14;;;;;;;3.30;1.42;;;11.50;99.90;;;;;;5051955;28;20041;-64
2022/09/17 08:31:40;;;;;;;6.22;1.25;;;11.50;99.90;;;;;;5053422;28;20048;-64
2022/09/17 08:34:08;;;;;;;4.50;1.58;;;11.50;99.90;;;;;;5052698;28;20573;-64
2022/09/17 08:36:34;;;;;;;4.65;1.40;;;11.50;99.90;;;;;;5053434;28;20028;-64
2022/09/17 08:39:00;;;;;;;4.75;1.20;;;11.50;99.90;;;;;;5051058;28;20029;-63
2022/09/17 08:41:50;;;;;;;7.53;1.17;;;11.60;99.90;;;;;;5052714;28;20025;-63
2022/09/17 08:44:40;;;;;;;7.07;1.48;;;11.80;99.90;;;;;;5052639;28;20024;-62
2022/09/17 08:47:13;;;;;;;3.53;0.93;;;12.00;99.90;;;;;;5053025;28;20497;-63
2022/09/17 08:49:52;;;;;;;6.35;1.20;;;12.10;99.90;;;;;;5050844;28;20385;-63
2022/09/17 08:52:40;;;;;;;8.25;1.48;;;12.20;99.90;;;;;;5052691;28;20102;-63
2022/09/17 08:55:18;;;;;;;4.80;1.20;;;12.30;99.90;;;;;;5051609;28;20025;-63
2022/09/17 08:58:10;;;;;;;5.10;1.33;;;12.50;99.90;;;;;;5052498;28;20031;-64
2022/09/17 09:01:05;;;;;;;3.17;1.30;;;12.80;99.90;;;;;;5053624;28;20029;-64
2022/09/17 09:03:30;;;;;;;6.97;1.40;;;12.90;99.90;;;;;;5052840;28;20045;-64
2022/09/17 09:05:57;;;;;;;4.60;1.35;;;12.90;99.90;;;;;;5052759;28;20041;-64
2022/09/17 09:08:42;;;;;;;4.78;1.25;;;12.80;99.90;;;;;;5051215;28;20017;-65
2022/09/17 09:11:20;;;;;;;3.80;1.13;;;12.90;99.90;;;;;;5050435;28;20041;-63
2022/09/17 09:13:50;;;;;;;4.00;1.38;;;13.00;99.90;;;;;;5050609;28;20083;-65
2022/09/17 09:16:18;;;;;;;3.17;1.08;;;13.00;99.90;;;;;;5050347;28;20479;-65
2022/09/17 09:18:45;;;;;;;3.85;1.20;;;13.10;99.90;;;;;;5050848;28;20051;-65
2022/09/17 09:21:26;;;;;;;4.45;1.25;;;13.20;99.90;;;;;;5052239;28;20061;-64
2022/09/17 09:23:57;;;;;;;5.65;1.20;;;13.20;99.90;;;;;;5051876;28;20059;-64
2022/09/17 09:26:27;;;;;;;5.20;1.38;;;13.20;99.90;;;;;;5051054;28;20025;-64
2022/09/17 09:29:02;;;;;;;5.13;1.20;;;13.30;99.90;;;;;;5052150;28;20040;-65
2022/09/17 09:31:41;;;;;;;7.13;1.60;;;13.30;99.90;;;;;;5050560;28;20051;-64
2022/09/17 09:34:09;;;;;;;9.93;2.22;;;13.30;99.90;;;;;;5052388;28;20032;-63
2022/09/17 09:36:37;;;;;;;6.95;1.73;;;13.20;99.90;;;;;;5052021;28;20370;-65
2022/09/17 09:39:16;;;;;;;3.25;0.90;;;12.90;99.90;;;;;;5051814;28;20474;-67
2022/09/17 09:41:53;;;;;;;4.75;0.93;;;12.30;99.90;;;;;;5052615;28;20032;-68
2022/09/17 09:44:19;;;;;;;1.05;0.50;;;11.90;99.90;;;;;;5051709;28;20031;-67
2022/09/17 09:46:44;;;;;;;5.20;0.65;;;11.60;99.90;;;;;;5050782;28;20025;-67
2022/09/17 09:49:49;;;;;;;5.13;1.13;;;11.60;99.90;;;;;;5052110;28;20104;-66
2022/09/17 09:52:20;;;;;;;2.28;0.70;;;11.60;99.90;;;;;;5051601;28;20555;-66
2022/09/17 09:54:48;;;;;;;4.45;0.90;;;11.70;99.90;;;;;;5050577;28;20476;-64
2022/09/17 09:57:21;;;;;;;4.47;0.90;;;11.60;99.90;;;;;;5051899;28;20028;-66
2022/09/17 09:59:47;;;;;;;2.70;0.60;;;11.60;99.90;;;;;;5051269;28;20048;-67
2022/09/17 10:02:13;;;;;;;2.00;1.00;;;11.50;99.90;;;;;;5052061;28;20068;-65
2022/09/17 10:04:39;;;;;;;3.28;0.55;;;11.40;99.90;;;;;;5051683;28;20373;-65
2022/09/17 10:07:07;;;;;;;3.13;0.70;;;11.20;99.90;;;;;;5049841;28;20488;-66
2022/09/17 10:09:35;;;;;;;3.30;1.05;;;11.10;99.90;;;;;;5051764;28;20028;-65
2022/09/17 10:12:07;;;;;;;3.10;1.10;;;11.00;99.90;;;;;;5051556;28;20319;-66
2022/09/17 10:14:35;;;;;;;3.03;0.88;;;11.10;99.90;;;;;;5051151;28;20024;-65
2022/09/17 10:17:24;;;;;;;2.28;0.50;;;11.20;99.90;;;;;;5051657;28;20021;-66
2022/09/17 10:19:58;;;;;;;1.95;0.57;;;11.30;99.90;;;;;;5051224;28;20029;-66
2022/09/17 10:22:31;;;;;;;3.47;0.90;;;11.40;99.90;;;;;;5051920;28;20480;-66
2022/09/17 10:24:59;;;;;;;1.55;0.60;;;11.60;99.90;;;;;;5054596;28;20104;-65
2022/09/17 10:27:26;;;;;;;3.13;0.60;;;11.80;99.90;;;;;;5055041;28;20369;-65
2022/09/17 10:30:07;;;;;;;0.80;0.50;;;12.10;99.90;;;;;;5054259;28;20021;-65
2022/09/17 10:32:33;;;;;;;2.88;1.05;;;12.50;99.90;;;;;;5055398;28;20095;-64
2022/09/17 10:35:04;;;;;;;10.02;1.33;;;12.80;99.90;;;;;;5054715;28;20477;-66
2022/09/17 10:37:41;;;;;;;3.17;0.77;;;12.90;99.90;;;;;;5055552;28;20470;-66
2022/09/17 10:40:19;;;;;;;3.22;0.85;;;12.70;99.90;;;;;;5055667;28;20024;-66
2022/09/17 10:42:49;;;;;;;1.27;0.70;;;12.30;99.90;;;;;;5053528;28;20071;-65
2022/09/17 10:45:29;;;;;;;3.58;0.80;;;12.20;99.90;;;;;;5055230;28;20100;-64
2022/09/17 10:47:57;;;;;;;1.50;0.65;;;12.10;99.90;;;;;;5054780;28;20033;-65
2022/09/17 10:50:27;;;;;;;2.47;0.73;;;12.10;99.90;;;;;;5055210;28;20021;-65
2022/09/17 10:53:05;;;;;;;3.53;0.70;;;12.20;99.90;;;;;;5053859;28;20405;-65
2022/09/17 10:56:04;;;;;;;1.10;0.50;;;12.20;99.90;;;;;;5054865;28;20025;-64
2022/09/17 10:58:38;;;;;;;4.10;0.70;;;12.20;99.90;;;;;;5049673;28;20033;-66
2022/09/17 11:01:37;;;;;;;5.15;0.88;;;12.20;99.90;;;;;;5055021;28;20033;-64
2022/09/17 11:04:20;;;;;;;4.68;1.00;;;12.00;99.90;;;;;;5055165;28;20028;-65
2022/09/17 11:07:17;;;;;;;1.80;0.90;;;11.80;99.90;;;;;;5052356;28;20074;-65
2022/09/17 11:09:58;;;;;;;1.98;0.68;;;11.70;99.90;;;;;;5044361;28;20112;-65
2022/09/17 11:12:38;;;;;;;2.83;0.85;;;11.60;99.90;;;;;;5054840;28;20087;-65
2022/09/17 11:15:22;;;;;;;2.75;0.88;;;11.70;99.90;;;;;;5054296;28;20013;-65
2022/09/17 11:18:15;;;;;;;2.65;0.63;;;11.90;99.90;;;;;;5053115;28;20388;-65
2022/09/17 11:21:07;;;;;;;2.72;0.80;;;12.00;99.90;;;;;;5055168;28;20485;-65
2022/09/17 11:23:59;;;;;;;4.85;0.90;;;12.30;99.90;;;;;;5054717;28;20021;-64
2022/09/17 11:26:52;;;;;;;4.15;0.95;;;12.60;99.90;;;;;;5054574;28;20025;-65
2022/09/17 11:29:36;;;;;;;1.70;0.60;;;12.80;99.90;;;;;;5053856;28;20020;-64
2022/09/17 11:32:28;;;;;;;2.25;0.63;;;13.00;99.90;;;;;;5054251;28;20040;-66
2022/09/17 11:34:59;;;;;;;2.50;0.65;;;13.20;99.90;;;;;;5053655;28;20452;-66
2022/09/17 11:37:36;;;;;;;0.85;0.50;;;13.40;99.90;;;;;;5054180;28;20494;-64
2022/09/17 11:40:11;;;;;;;2.83;1.05;;;13.50;99.90;;;;;;5054494;28;20028;-65
2022/09/17 11:42:44;;;;;;;4.18;0.85;;;13.70;99.90;;;;;;5053392;28;20017;-66
2022/09/17 11:45:33;;;;;;;3.80;0.75;;;13.80;98.80;;;;;;5054098;28;20029;-65
2022/09/17 11:48:26;;;;;;;1.92;0.68;;;13.70;96.70;;;;;;5054242;28;20456;-66
2022/09/17 11:51:20;;;;;;;3.22;0.60;;;13.50;98.10;;;;;;5053320;28;20557;-66
2022/09/17 11:53:51;;;;;;;5.70;0.80;;;13.40;99.10;;;;;;5049937;28;20120;-65
2022/09/17 11:56:34;;;;;;;3.28;0.63;;;13.30;99.90;;;;;;5053528;28;20021;-65
2022/09/17 11:59:40;;;;;;;2.60;0.80;;;13.30;99.90;;;;;;5053870;28;20110;-65
2022/09/17 12:02:08;;;;;;;3.10;0.90;;;13.30;99.90;;;;;;5054134;28;20052;-65
2022/09/17 12:04:52;;;;;;;3.60;0.55;;;13.30;99.90;;;;;;5053447;28;20032;-65
2022/09/17 12:07:24;;;;;;;3.92;1.10;;;13.30;99.90;;;;;;5053877;28;20075;-65
2022/09/17 12:09:59;;;;;;;4.45;0.80;;;13.20;99.90;;;;;;5053690;28;20032;-65
2022/09/17 12:12:27;;;;;;;6.50;1.23;;;13.00;99.00;;;;;;5053037;28;20191;-63
2022/09/17 12:15:06;;;;;;;4.45;0.93;;;12.60;99.90;;;;;;5053869;28;20009;-64
2022/09/17 12:17:51;;;;;;;8.18;2.53;;;12.50;99.90;;;;;;5053170;28;20029;-64
2022/09/17 12:20:34;;;;;;;5.15;0.80;;;12.50;99.90;;;;;;5053542;28;20025;-64
2022/09/17 12:23:03;;;;;;;2.92;0.80;;;12.60;99.90;;;;;;5051968;28;20055;-63
2022/09/17 12:25:37;;;;;;;3.08;0.73;;;12.70;99.90;;;;;;5052912;28;20025;-63
2022/09/17 12:28:12;;;;;;;6.20;1.25;;;12.70;99.90;;;;;;5052128;28;20465;-64
2022/09/17 12:30:43;;;;;;;1.45;0.82;;;12.70;99.90;;;;;;5053295;28;20119;-64
2022/09/17 12:33:25;;;;;;;6.43;0.90;;;12.80;99.90;;;;;;5052697;28;20029;-64
2022/09/17 12:36:16;;;;;;;8.15;1.63;;;13.00;99.90;;;;;;5053245;28;20488;-65
2022/09/17 12:39:23;;;;;;;4.15;1.05;;;13.10;99.90;;;;;;5051489;28;20568;-66
2022/09/17 12:42:03;;;;;;;5.68;0.68;;;13.00;99.90;;;;;;5045510;28;20029;-66
2022/09/17 12:44:49;;;;;;;0.63;0.50;;;12.50;99.90;;;;;;5056082;28;20031;-66
2022/09/17 12:47:36;;;;;;;4.63;0.60;;;12.20;99.90;;;;;;5052137;28;20486;-67
2022/09/17 12:50:33;;;;;;;3.75;1.67;;;12.00;99.90;;;;;;5054011;28;20021;-64
2022/09/17 12:53:20;;;;;;;4.57;0.63;;;11.90;99.90;;;;;;5056803;28;20157;-64
2022/09/17 12:55:45;;;;;;;1.95;0.77;;;11.80;99.90;;;;;;5052872;28;20029;-67
2022/09/17 12:58:53;;;;;;;1.60;0.70;;;11.70;99.90;;;;;;5051321;28;20163;-64
2022/09/17 13:01:30;;;;;;;2.53;0.73;;;11.80;99.90;;;;;;5052171;28;20104;-65
2022/09/17 13:04:02;;;;;;;1.63;0.63;;;12.00;99.90;;;;;;5052202;28;20036;-64
2022/09/17 13:06:46;;;;;;;1.27;0.60;;;12.10;99.90;;;;;;5051993;28;20029;-66
2022/09/17 13:09:17;;;;;;;2.17;0.85;;;12.30;99.90;;;;;;5052565;28;20028;-66
2022/09/17 13:12:02;;;;;;;;;;;12.70;99.90;;;;;;5051624;28;20426;-66
2022/09/17 13:14:44;;;;;;;5.53;0.85;;;12.90;99.90;;;;;;5050643;28;20258;-67
2022/09/17 13:17:31;;;;;;;4.10;0.80;;;12.90;99.90;;;;;;5051278;28;20393;-67